sensor_id;sensor_type;location;lat;lon;timestamp;P1;durP1;ratioP1;P2;durP2;ratioP2
50309;SDS011;36207;51.850;21.698;2022-10-17T00:01:33;20.20;;;14.90;;
50309;SDS011;36207;51.850;21.698;2022-10-17T00:03:59;21.90;;;15.60;;
50309;SDS011;36207;51.850;21.698;2022-10-17T00:06:25;22.00;;;14.00;;
50309;SDS011;36207;51.850;21.698;2022-10-17T00:08:52;19.10;;;14.50;;
50309;SDS011;36207;51.850;21.698;2022-10-17T00:11:19;21.10;;;13.70;;
50309;SDS011;36207;51.850;21.698;2022-10-17T00:13:47;17.80;;;13.40;;
50309;SDS011;36207;51.850;21.698;2022-10-17T00:16:18;21.20;;;14.70;;
50309;SDS011;36207;51.850;21.698;2022-10-17T00:18:52;17.40;;;14.00;;
50309;SDS011;36207;51.850;21.698;2022-10-17T00:21:18;17.70;;;13.50;;
50309;SDS011;36207;51.850;21.698;2022-10-17T00:23:45;22.50;;;15.00;;
50309;SDS011;36207;51.850;21.698;2022-10-17T00:26:12;20.60;;;14.70;;
50309;SDS011;36207;51.850;21.698;2022-10-17T00:28:38;20.10;;;14.00;;
50309;SDS011;36207;51.850;21.698;2022-10-17T00:31:05;17.60;;;14.10;;
50309;SDS011;36207;51.850;21.698;2022-10-17T00:33:33;17.80;;;14.10;;
50309;SDS011;36207;51.850;21.698;2022-10-17T00:36:04;20.40;;;15.00;;
50309;SDS011;36207;51.850;21.698;2022-10-17T00:38:33;19.30;;;14.40;;
50309;SDS011;36207;51.850;21.698;2022-10-17T00:41:00;19.50;;;14.10;;
50309;SDS011;36207;51.850;21.698;2022-10-17T00:43:27;21.80;;;13.70;;
50309;SDS011;36207;51.850;21.698;2022-10-17T00:45:54;20.10;;;15.20;;
50309;SDS011;36207;51.850;21.698;2022-10-17T00:48:22;22.40;;;15.20;;
50309;SDS011;36207;51.850;21.698;2022-10-17T00:50:50;23.60;;;15.70;;
50309;SDS011;36207;51.850;21.698;2022-10-17T00:53:17;23.20;;;15.20;;
50309;SDS011;36207;51.850;21.698;2022-10-17T00:55:47;20.70;;;14.00;;
50309;SDS011;36207;51.850;21.698;2022-10-17T00:58:15;21.20;;;14.20;;
50309;SDS011;36207;51.850;21.698;2022-10-17T01:00:42;19.50;;;14.70;;
50309;SDS011;36207;51.850;21.698;2022-10-17T01:03:10;26.20;;;17.70;;
50309;SDS011;36207;51.850;21.698;2022-10-17T01:05:37;27.40;;;17.80;;
50309;SDS011;36207;51.850;21.698;2022-10-17T01:08:05;26.10;;;17.60;;
50309;SDS011;36207;51.850;21.698;2022-10-17T01:10:34;23.80;;;16.00;;
50309;SDS011;36207;51.850;21.698;2022-10-17T01:13:20;22.40;;;16.70;;
50309;SDS011;36207;51.850;21.698;2022-10-17T01:15:58;26.50;;;16.20;;
50309;SDS011;36207;51.850;21.698;2022-10-17T01:21:25;24.60;;;16.40;;
50309;SDS011;36207;51.850;21.698;2022-10-17T01:32:49;22.70;;;16.20;;
50309;SDS011;36207;51.850;21.698;2022-10-17T01:35:22;23.00;;;16.50;;
50309;SDS011;36207;51.850;21.698;2022-10-17T01:38:10;24.80;;;15.80;;
50309;SDS011;36207;51.850;21.698;2022-10-17T01:40:59;26.70;;;16.30;;
50309;SDS011;36207;51.850;21.698;2022-10-17T01:43:33;21.70;;;14.90;;
50309;SDS011;36207;51.850;21.698;2022-10-17T01:46:23;22.70;;;14.80;;
50309;SDS011;36207;51.850;21.698;2022-10-17T01:48:56;21.70;;;14.80;;
50309;SDS011;36207;51.850;21.698;2022-10-17T01:51:59;22.40;;;15.30;;
50309;SDS011;36207;51.850;21.698;2022-10-17T01:54:31;21.60;;;15.70;;
50309;SDS011;36207;51.850;21.698;2022-10-17T01:57:58;26.00;;;16.50;;
50309;SDS011;36207;51.850;21.698;2022-10-17T02:00:12;22.30;;;16.20;;
50309;SDS011;36207;51.850;21.698;2022-10-17T02:02:42;22.40;;;16.40;;
50309;SDS011;36207;51.850;21.698;2022-10-17T02:05:11;21.00;;;15.40;;
50309;SDS011;36207;51.850;21.698;2022-10-17T02:07:39;23.50;;;16.70;;
50309;SDS011;36207;51.850;21.698;2022-10-17T02:10:09;20.30;;;15.50;;
50309;SDS011;36207;51.850;21.698;2022-10-17T02:12:58;20.90;;;14.70;;
50309;SDS011;36207;51.850;21.698;2022-10-17T02:18:15;22.50;;;15.00;;
50309;SDS011;36207;51.850;21.698;2022-10-17T02:21:07;23.00;;;15.60;;
50309;SDS011;36207;51.850;21.698;2022-10-17T02:23:47;22.50;;;15.80;;
50309;SDS011;36207;51.850;21.698;2022-10-17T02:26:32;24.00;;;16.20;;
50309;SDS011;36207;51.850;21.698;2022-10-17T02:31:37;25.40;;;17.30;;
50309;SDS011;36207;51.850;21.698;2022-10-17T02:34:08;28.70;;;18.00;;
50309;SDS011;36207;51.850;21.698;2022-10-17T02:36:45;25.30;;;16.40;;
50309;SDS011;36207;51.850;21.698;2022-10-17T02:39:16;27.60;;;17.30;;
50309;SDS011;36207;51.850;21.698;2022-10-17T02:41:46;26.20;;;18.00;;
50309;SDS011;36207;51.850;21.698;2022-10-17T02:44:15;24.20;;;17.90;;
50309;SDS011;36207;51.850;21.698;2022-10-17T02:46:44;24.50;;;17.50;;
50309;SDS011;36207;51.850;21.698;2022-10-17T02:49:25;26.10;;;19.10;;
50309;SDS011;36207;51.850;21.698;2022-10-17T02:57:01;23.80;;;17.00;;
50309;SDS011;36207;51.850;21.698;2022-10-17T02:59:49;25.00;;;17.80;;
50309;SDS011;36207;51.850;21.698;2022-10-17T03:02:16;24.60;;;17.40;;
50309;SDS011;36207;51.850;21.698;2022-10-17T03:04:43;23.60;;;17.10;;
50309;SDS011;36207;51.850;21.698;2022-10-17T03:07:10;22.20;;;15.70;;
50309;SDS011;36207;51.850;21.698;2022-10-17T03:09:37;19.00;;;15.00;;
50309;SDS011;36207;51.850;21.698;2022-10-17T03:12:03;23.40;;;14.60;;
50309;SDS011;36207;51.850;21.698;2022-10-17T03:14:30;21.50;;;15.20;;
50309;SDS011;36207;51.850;21.698;2022-10-17T03:16:56;25.00;;;17.00;;
50309;SDS011;36207;51.850;21.698;2022-10-17T03:19:22;22.90;;;16.50;;
50309;SDS011;36207;51.850;21.698;2022-10-17T03:21:48;20.80;;;15.80;;
50309;SDS011;36207;51.850;21.698;2022-10-17T03:24:14;24.80;;;16.30;;
50309;SDS011;36207;51.850;21.698;2022-10-17T03:26:41;22.30;;;15.50;;
50309;SDS011;36207;51.850;21.698;2022-10-17T03:29:07;21.30;;;15.50;;
50309;SDS011;36207;51.850;21.698;2022-10-17T03:31:33;24.60;;;16.20;;
50309;SDS011;36207;51.850;21.698;2022-10-17T03:34:00;20.40;;;15.50;;
50309;SDS011;36207;51.850;21.698;2022-10-17T03:36:27;25.20;;;16.00;;
50309;SDS011;36207;51.850;21.698;2022-10-17T03:38:53;21.00;;;15.80;;
50309;SDS011;36207;51.850;21.698;2022-10-17T03:41:20;21.80;;;16.80;;
50309;SDS011;36207;51.850;21.698;2022-10-17T03:43:46;20.80;;;15.30;;
50309;SDS011;36207;51.850;21.698;2022-10-17T03:46:12;23.60;;;16.60;;
50309;SDS011;36207;51.850;21.698;2022-10-17T03:48:39;23.40;;;16.90;;
50309;SDS011;36207;51.850;21.698;2022-10-17T03:51:05;20.80;;;15.90;;
50309;SDS011;36207;51.850;21.698;2022-10-17T03:53:33;24.80;;;17.30;;
50309;SDS011;36207;51.850;21.698;2022-10-17T03:56:16;25.30;;;18.00;;
50309;SDS011;36207;51.850;21.698;2022-10-17T03:58:44;26.70;;;17.80;;
50309;SDS011;36207;51.850;21.698;2022-10-17T04:01:11;23.40;;;16.30;;
50309;SDS011;36207;51.850;21.698;2022-10-17T04:03:39;23.70;;;16.90;;
50309;SDS011;36207;51.850;21.698;2022-10-17T04:06:05;22.70;;;16.90;;
50309;SDS011;36207;51.850;21.698;2022-10-17T04:08:32;22.30;;;17.10;;
50309;SDS011;36207;51.850;21.698;2022-10-17T04:10:59;22.70;;;15.50;;
50309;SDS011;36207;51.850;21.698;2022-10-17T04:13:27;21.90;;;15.90;;
50309;SDS011;36207;51.850;21.698;2022-10-17T04:15:58;23.30;;;16.10;;
50309;SDS011;36207;51.850;21.698;2022-10-17T04:18:26;22.40;;;16.50;;
50309;SDS011;36207;51.850;21.698;2022-10-17T04:20:52;20.90;;;16.10;;
50309;SDS011;36207;51.850;21.698;2022-10-17T04:23:19;23.20;;;15.90;;
50309;SDS011;36207;51.850;21.698;2022-10-17T04:25:45;21.60;;;15.50;;
50309;SDS011;36207;51.850;21.698;2022-10-17T04:28:11;23.90;;;17.90;;
50309;SDS011;36207;51.850;21.698;2022-10-17T04:30:38;25.30;;;17.40;;
50309;SDS011;36207;51.850;21.698;2022-10-17T04:33:05;27.60;;;17.50;;
50309;SDS011;36207;51.850;21.698;2022-10-17T04:35:31;24.30;;;17.00;;
50309;SDS011;36207;51.850;21.698;2022-10-17T04:37:57;25.80;;;16.50;;
50309;SDS011;36207;51.850;21.698;2022-10-17T04:40:23;21.60;;;16.40;;
50309;SDS011;36207;51.850;21.698;2022-10-17T04:42:49;23.70;;;16.20;;
50309;SDS011;36207;51.850;21.698;2022-10-17T04:45:17;24.60;;;16.00;;
50309;SDS011;36207;51.850;21.698;2022-10-17T04:47:43;24.90;;;17.60;;
50309;SDS011;36207;51.850;21.698;2022-10-17T04:50:09;25.50;;;16.80;;
50309;SDS011;36207;51.850;21.698;2022-10-17T04:52:35;26.10;;;17.20;;
50309;SDS011;36207;51.850;21.698;2022-10-17T04:55:04;27.10;;;17.90;;
50309;SDS011;36207;51.850;21.698;2022-10-17T04:57:33;25.90;;;18.60;;
50309;SDS011;36207;51.850;21.698;2022-10-17T05:00:00;27.10;;;18.00;;
50309;SDS011;36207;51.850;21.698;2022-10-17T05:02:27;27.30;;;18.70;;
50309;SDS011;36207;51.850;21.698;2022-10-17T05:04:53;24.30;;;17.40;;
50309;SDS011;36207;51.850;21.698;2022-10-17T05:07:19;25.10;;;17.60;;
50309;SDS011;36207;51.850;21.698;2022-10-17T05:09:46;24.20;;;17.40;;
50309;SDS011;36207;51.850;21.698;2022-10-17T05:12:12;26.70;;;18.00;;
50309;SDS011;36207;51.850;21.698;2022-10-17T05:14:38;28.70;;;19.30;;
50309;SDS011;36207;51.850;21.698;2022-10-17T05:17:04;22.30;;;17.70;;
50309;SDS011;36207;51.850;21.698;2022-10-17T05:19:30;26.50;;;17.20;;
50309;SDS011;36207;51.850;21.698;2022-10-17T05:21:56;25.80;;;18.30;;
50309;SDS011;36207;51.850;21.698;2022-10-17T05:24:22;28.90;;;17.80;;
50309;SDS011;36207;51.850;21.698;2022-10-17T05:26:49;25.80;;;17.80;;
50309;SDS011;36207;51.850;21.698;2022-10-17T05:29:16;24.00;;;18.50;;
50309;SDS011;36207;51.850;21.698;2022-10-17T05:31:43;25.70;;;18.00;;
50309;SDS011;36207;51.850;21.698;2022-10-17T05:34:09;27.60;;;18.20;;
50309;SDS011;36207;51.850;21.698;2022-10-17T05:36:35;26.70;;;18.40;;
50309;SDS011;36207;51.850;21.698;2022-10-17T05:39:01;27.40;;;18.80;;
50309;SDS011;36207;51.850;21.698;2022-10-17T05:41:28;29.20;;;18.30;;
50309;SDS011;36207;51.850;21.698;2022-10-17T05:43:54;30.00;;;18.50;;
50309;SDS011;36207;51.850;21.698;2022-10-17T05:46:20;28.00;;;17.70;;
50309;SDS011;36207;51.850;21.698;2022-10-17T05:48:46;24.20;;;18.30;;
50309;SDS011;36207;51.850;21.698;2022-10-17T05:51:12;28.40;;;18.70;;
50309;SDS011;36207;51.850;21.698;2022-10-17T05:53:39;28.00;;;19.40;;
50309;SDS011;36207;51.850;21.698;2022-10-17T05:56:08;27.20;;;18.80;;
50309;SDS011;36207;51.850;21.698;2022-10-17T05:58:39;28.80;;;18.00;;
50309;SDS011;36207;51.850;21.698;2022-10-17T06:01:07;23.30;;;17.20;;
50309;SDS011;36207;51.850;21.698;2022-10-17T06:03:33;30.40;;;18.50;;
50309;SDS011;36207;51.850;21.698;2022-10-17T06:06:03;26.20;;;18.60;;
50309;SDS011;36207;51.850;21.698;2022-10-17T06:08:33;27.30;;;18.90;;
50309;SDS011;36207;51.850;21.698;2022-10-17T06:11:00;24.90;;;17.40;;
50309;SDS011;36207;51.850;21.698;2022-10-17T06:13:26;27.00;;;16.90;;
50309;SDS011;36207;51.850;21.698;2022-10-17T06:15:52;29.00;;;18.50;;
50309;SDS011;36207;51.850;21.698;2022-10-17T06:18:18;26.60;;;19.10;;
50309;SDS011;36207;51.850;21.698;2022-10-17T06:20:45;27.90;;;19.00;;
50309;SDS011;36207;51.850;21.698;2022-10-17T06:23:11;26.60;;;18.80;;
50309;SDS011;36207;51.850;21.698;2022-10-17T06:25:37;30.30;;;18.30;;
50309;SDS011;36207;51.850;21.698;2022-10-17T06:28:03;26.30;;;18.50;;
50309;SDS011;36207;51.850;21.698;2022-10-17T06:30:30;29.40;;;18.60;;
50309;SDS011;36207;51.850;21.698;2022-10-17T06:32:56;27.00;;;19.30;;
50309;SDS011;36207;51.850;21.698;2022-10-17T06:35:22;30.40;;;19.70;;
50309;SDS011;36207;51.850;21.698;2022-10-17T06:37:48;24.60;;;18.00;;
50309;SDS011;36207;51.850;21.698;2022-10-17T06:40:14;26.70;;;18.20;;
50309;SDS011;36207;51.850;21.698;2022-10-17T06:42:42;24.90;;;18.00;;
50309;SDS011;36207;51.850;21.698;2022-10-17T06:45:08;25.20;;;18.20;;
50309;SDS011;36207;51.850;21.698;2022-10-17T06:47:36;25.70;;;18.80;;
50309;SDS011;36207;51.850;21.698;2022-10-17T06:50:02;23.10;;;17.40;;
50309;SDS011;36207;51.850;21.698;2022-10-17T06:52:28;26.30;;;18.30;;
50309;SDS011;36207;51.850;21.698;2022-10-17T06:55:00;27.00;;;18.20;;
50309;SDS011;36207;51.850;21.698;2022-10-17T06:57:27;27.70;;;18.70;;
50309;SDS011;36207;51.850;21.698;2022-10-17T06:59:53;25.00;;;17.80;;
50309;SDS011;36207;51.850;21.698;2022-10-17T07:02:20;25.40;;;17.10;;
50309;SDS011;36207;51.850;21.698;2022-10-17T07:04:48;26.60;;;17.00;;
50309;SDS011;36207;51.850;21.698;2022-10-17T07:07:14;24.10;;;17.10;;
50309;SDS011;36207;51.850;21.698;2022-10-17T07:09:41;23.60;;;16.70;;
50309;SDS011;36207;51.850;21.698;2022-10-17T07:12:07;25.10;;;17.30;;
50309;SDS011;36207;51.850;21.698;2022-10-17T07:14:34;26.20;;;18.00;;
50309;SDS011;36207;51.850;21.698;2022-10-17T07:17:00;24.80;;;17.70;;
50309;SDS011;36207;51.850;21.698;2022-10-17T07:19:27;24.30;;;17.70;;
50309;SDS011;36207;51.850;21.698;2022-10-17T07:21:53;26.60;;;17.70;;
50309;SDS011;36207;51.850;21.698;2022-10-17T07:24:19;24.30;;;17.10;;
50309;SDS011;36207;51.850;21.698;2022-10-17T07:26:45;22.40;;;16.70;;
50309;SDS011;36207;51.850;21.698;2022-10-17T07:29:11;22.50;;;16.50;;
50309;SDS011;36207;51.850;21.698;2022-10-17T07:31:37;23.70;;;16.80;;
50309;SDS011;36207;51.850;21.698;2022-10-17T07:34:04;21.80;;;16.30;;
50309;SDS011;36207;51.850;21.698;2022-10-17T07:36:30;22.10;;;16.20;;
50309;SDS011;36207;51.850;21.698;2022-10-17T07:38:56;19.60;;;15.20;;
50309;SDS011;36207;51.850;21.698;2022-10-17T07:41:22;20.40;;;15.60;;
50309;SDS011;36207;51.850;21.698;2022-10-17T07:43:48;20.40;;;15.50;;
50309;SDS011;36207;51.850;21.698;2022-10-17T07:46:14;21.20;;;15.90;;
50309;SDS011;36207;51.850;21.698;2022-10-17T07:48:40;23.70;;;16.00;;
50309;SDS011;36207;51.850;21.698;2022-10-17T07:51:07;22.40;;;16.00;;
50309;SDS011;36207;51.850;21.698;2022-10-17T07:53:35;23.20;;;15.30;;
50309;SDS011;36207;51.850;21.698;2022-10-17T07:56:02;25.60;;;15.40;;
50309;SDS011;36207;51.850;21.698;2022-10-17T07:58:31;25.50;;;15.50;;
50309;SDS011;36207;51.850;21.698;2022-10-17T08:01:05;20.70;;;15.20;;
50309;SDS011;36207;51.850;21.698;2022-10-17T08:03:33;21.40;;;15.30;;
50309;SDS011;36207;51.850;21.698;2022-10-17T08:06:00;22.50;;;14.90;;
50309;SDS011;36207;51.850;21.698;2022-10-17T08:08:27;24.50;;;14.70;;
50309;SDS011;36207;51.850;21.698;2022-10-17T08:10:54;25.50;;;15.70;;
50309;SDS011;36207;51.850;21.698;2022-10-17T08:13:25;21.00;;;14.50;;
50309;SDS011;36207;51.850;21.698;2022-10-17T08:15:52;18.70;;;14.40;;
50309;SDS011;36207;51.850;21.698;2022-10-17T08:18:18;19.90;;;14.40;;
50309;SDS011;36207;51.850;21.698;2022-10-17T08:20:44;20.80;;;14.70;;
50309;SDS011;36207;51.850;21.698;2022-10-17T08:23:10;20.00;;;14.10;;
50309;SDS011;36207;51.850;21.698;2022-10-17T08:25:37;19.10;;;13.80;;
50309;SDS011;36207;51.850;21.698;2022-10-17T08:28:04;19.30;;;13.90;;
50309;SDS011;36207;51.850;21.698;2022-10-17T08:30:31;20.40;;;14.10;;
50309;SDS011;36207;51.850;21.698;2022-10-17T08:32:57;17.10;;;13.60;;
50309;SDS011;36207;51.850;21.698;2022-10-17T08:35:23;17.00;;;14.00;;
50309;SDS011;36207;51.850;21.698;2022-10-17T08:37:50;23.70;;;14.60;;
50309;SDS011;36207;51.850;21.698;2022-10-17T08:40:18;20.50;;;14.10;;
50309;SDS011;36207;51.850;21.698;2022-10-17T08:48:20;17.90;;;13.40;;
50309;SDS011;36207;51.850;21.698;2022-10-17T08:56:50;20.40;;;13.80;;
50309;SDS011;36207;51.850;21.698;2022-10-17T08:59:20;18.20;;;14.10;;
50309;SDS011;36207;51.850;21.698;2022-10-17T09:02:02;18.80;;;13.80;;
50309;SDS011;36207;51.850;21.698;2022-10-17T09:04:44;18.20;;;13.60;;
50309;SDS011;36207;51.850;21.698;2022-10-17T09:10:27;18.40;;;13.80;;
50309;SDS011;36207;51.850;21.698;2022-10-17T09:21:17;20.70;;;13.60;;
50309;SDS011;36207;51.850;21.698;2022-10-17T09:23:58;22.70;;;13.40;;
50309;SDS011;36207;51.850;21.698;2022-10-17T09:26:29;21.30;;;13.80;;
50309;SDS011;36207;51.850;21.698;2022-10-17T09:28:56;20.70;;;14.00;;
50309;SDS011;36207;51.850;21.698;2022-10-17T09:31:28;18.50;;;13.60;;
50309;SDS011;36207;51.850;21.698;2022-10-17T09:34:00;19.70;;;13.80;;
50309;SDS011;36207;51.850;21.698;2022-10-17T09:36:28;22.90;;;14.30;;
50309;SDS011;36207;51.850;21.698;2022-10-17T09:38:57;21.10;;;14.80;;
50309;SDS011;36207;51.850;21.698;2022-10-17T09:41:29;16.50;;;13.10;;
50309;SDS011;36207;51.850;21.698;2022-10-17T09:50:02;17.80;;;13.80;;
50309;SDS011;36207;51.850;21.698;2022-10-17T09:52:34;16.60;;;12.80;;
50309;SDS011;36207;51.850;21.698;2022-10-17T09:57:57;19.60;;;13.10;;
50309;SDS011;36207;51.850;21.698;2022-10-17T10:00:27;20.90;;;13.80;;
50309;SDS011;36207;51.850;21.698;2022-10-17T10:09:04;20.40;;;14.00;;
50309;SDS011;36207;51.850;21.698;2022-10-17T10:11:24;18.00;;;12.90;;
50309;SDS011;36207;51.850;21.698;2022-10-17T10:14:17;21.20;;;13.30;;
50309;SDS011;36207;51.850;21.698;2022-10-17T10:16:59;17.80;;;13.20;;
50309;SDS011;36207;51.850;21.698;2022-10-17T10:19:33;18.60;;;13.60;;
50309;SDS011;36207;51.850;21.698;2022-10-17T10:22:02;21.80;;;14.10;;
50309;SDS011;36207;51.850;21.698;2022-10-17T10:24:40;18.20;;;13.00;;
50309;SDS011;36207;51.850;21.698;2022-10-17T10:27:10;22.10;;;13.20;;
50309;SDS011;36207;51.850;21.698;2022-10-17T10:32:22;18.20;;;13.80;;
50309;SDS011;36207;51.850;21.698;2022-10-17T10:34:58;21.40;;;13.50;;
50309;SDS011;36207;51.850;21.698;2022-10-17T10:37:36;17.80;;;13.20;;
50309;SDS011;36207;51.850;21.698;2022-10-17T10:40:05;19.60;;;13.20;;
50309;SDS011;36207;51.850;21.698;2022-10-17T10:42:40;18.30;;;14.20;;
50309;SDS011;36207;51.850;21.698;2022-10-17T10:48:00;20.00;;;13.80;;
50309;SDS011;36207;51.850;21.698;2022-10-17T10:53:24;18.10;;;14.50;;
50309;SDS011;36207;51.850;21.698;2022-10-17T10:56:00;18.60;;;13.80;;
50309;SDS011;36207;51.850;21.698;2022-10-17T10:58:43;22.40;;;14.20;;
50309;SDS011;36207;51.850;21.698;2022-10-17T11:04:22;18.60;;;14.00;;
50309;SDS011;36207;51.850;21.698;2022-10-17T11:06:58;17.70;;;13.60;;
50309;SDS011;36207;51.850;21.698;2022-10-17T11:09:35;19.70;;;14.40;;
50309;SDS011;36207;51.850;21.698;2022-10-17T11:14:57;18.20;;;13.80;;
50309;SDS011;36207;51.850;21.698;2022-10-17T11:24:11;18.80;;;14.10;;
50309;SDS011;36207;51.850;21.698;2022-10-17T11:26:15;16.50;;;13.20;;
50309;SDS011;36207;51.850;21.698;2022-10-17T11:28:54;18.10;;;14.10;;
50309;SDS011;36207;51.850;21.698;2022-10-17T11:31:22;20.20;;;13.40;;
50309;SDS011;36207;51.850;21.698;2022-10-17T11:34:01;17.20;;;13.80;;
50309;SDS011;36207;51.850;21.698;2022-10-17T11:36:36;17.40;;;13.80;;
50309;SDS011;36207;51.850;21.698;2022-10-17T11:41:47;21.40;;;13.80;;
50309;SDS011;36207;51.850;21.698;2022-10-17T11:47:00;17.80;;;13.10;;
50309;SDS011;36207;51.850;21.698;2022-10-17T11:49:38;18.10;;;13.60;;
50309;SDS011;36207;51.850;21.698;2022-10-17T11:54:38;20.80;;;13.90;;
50309;SDS011;36207;51.850;21.698;2022-10-17T12:05:51;16.10;;;13.20;;
50309;SDS011;36207;51.850;21.698;2022-10-17T12:08:28;18.40;;;13.60;;
50309;SDS011;36207;51.850;21.698;2022-10-17T12:11:02;18.50;;;13.30;;
50309;SDS011;36207;51.850;21.698;2022-10-17T12:24:28;19.00;;;12.60;;
50309;SDS011;36207;51.850;21.698;2022-10-17T12:27:21;16.50;;;12.50;;
50309;SDS011;36207;51.850;21.698;2022-10-17T12:30:00;18.00;;;12.90;;
50309;SDS011;36207;51.850;21.698;2022-10-17T12:32:30;19.10;;;12.70;;
50309;SDS011;36207;51.850;21.698;2022-10-17T12:34:57;17.10;;;12.50;;
50309;SDS011;36207;51.850;21.698;2022-10-17T12:51:13;15.20;;;12.10;;
50309;SDS011;36207;51.850;21.698;2022-10-17T12:56:17;18.60;;;12.00;;
50309;SDS011;36207;51.850;21.698;2022-10-17T12:58:47;17.90;;;12.30;;
50309;SDS011;36207;51.850;21.698;2022-10-17T13:01:21;17.30;;;12.30;;
50309;SDS011;36207;51.850;21.698;2022-10-17T13:04:02;18.20;;;12.60;;
50309;SDS011;36207;51.850;21.698;2022-10-17T13:06:31;16.30;;;12.20;;
50309;SDS011;36207;51.850;21.698;2022-10-17T13:09:47;15.80;;;12.00;;
50309;SDS011;36207;51.850;21.698;2022-10-17T13:12:03;15.50;;;11.80;;
50309;SDS011;36207;51.850;21.698;2022-10-17T13:14:35;15.80;;;12.00;;
50309;SDS011;36207;51.850;21.698;2022-10-17T13:17:13;19.30;;;12.00;;
50309;SDS011;36207;51.850;21.698;2022-10-17T13:19:47;16.50;;;11.10;;
50309;SDS011;36207;51.850;21.698;2022-10-17T13:24:45;17.90;;;11.20;;
50309;SDS011;36207;51.850;21.698;2022-10-17T13:27:24;16.40;;;12.30;;
50309;SDS011;36207;51.850;21.698;2022-10-17T13:29:53;15.10;;;11.70;;
50309;SDS011;36207;51.850;21.698;2022-10-17T13:32:23;15.60;;;11.40;;
50309;SDS011;36207;51.850;21.698;2022-10-17T13:35:08;13.30;;;11.00;;
50309;SDS011;36207;51.850;21.698;2022-10-17T13:37:36;15.20;;;11.40;;
50309;SDS011;36207;51.850;21.698;2022-10-17T13:40:06;15.70;;;11.00;;
50309;SDS011;36207;51.850;21.698;2022-10-17T13:42:40;16.20;;;11.80;;
50309;SDS011;36207;51.850;21.698;2022-10-17T13:45:12;17.40;;;11.20;;
50309;SDS011;36207;51.850;21.698;2022-10-17T13:47:47;17.50;;;11.70;;
50309;SDS011;36207;51.850;21.698;2022-10-17T13:50:25;16.60;;;12.30;;
50309;SDS011;36207;51.850;21.698;2022-10-17T13:58:28;23.80;;;17.70;;
50309;SDS011;36207;51.850;21.698;2022-10-17T14:00:57;18.60;;;11.40;;
50309;SDS011;36207;51.850;21.698;2022-10-17T14:03:23;16.70;;;10.70;;
50309;SDS011;36207;51.850;21.698;2022-10-17T14:08:45;15.80;;;10.70;;
50309;SDS011;36207;51.850;21.698;2022-10-17T14:11:14;16.60;;;10.40;;
50309;SDS011;36207;51.850;21.698;2022-10-17T14:13:48;18.70;;;10.80;;
50309;SDS011;36207;51.850;21.698;2022-10-17T14:16:17;16.40;;;10.50;;
50309;SDS011;36207;51.850;21.698;2022-10-17T14:18:45;13.90;;;11.00;;
50309;SDS011;36207;51.850;21.698;2022-10-17T14:21:24;21.30;;;15.60;;
50309;SDS011;36207;51.850;21.698;2022-10-17T14:26:49;24.40;;;17.70;;
50309;SDS011;36207;51.850;21.698;2022-10-17T14:29:21;27.10;;;15.00;;
50309;SDS011;36207;51.850;21.698;2022-10-17T14:32:02;28.30;;;18.30;;
50309;SDS011;36207;51.850;21.698;2022-10-17T14:34:34;27.60;;;18.70;;
50309;SDS011;36207;51.850;21.698;2022-10-17T14:37:10;32.10;;;16.50;;
50309;SDS011;36207;51.850;21.698;2022-10-17T14:40:00;21.40;;;13.00;;
50309;SDS011;36207;51.850;21.698;2022-10-17T14:42:29;18.10;;;11.20;;
50309;SDS011;36207;51.850;21.698;2022-10-17T14:44:56;16.50;;;10.60;;
50309;SDS011;36207;51.850;21.698;2022-10-17T14:47:32;17.20;;;11.20;;
50309;SDS011;36207;51.850;21.698;2022-10-17T14:50:04;15.50;;;10.70;;
50309;SDS011;36207;51.850;21.698;2022-10-17T14:52:37;17.10;;;11.40;;
50309;SDS011;36207;51.850;21.698;2022-10-17T14:55:26;20.50;;;11.30;;
50309;SDS011;36207;51.850;21.698;2022-10-17T14:57:52;14.80;;;11.40;;
50309;SDS011;36207;51.850;21.698;2022-10-17T15:00:19;47.00;;;31.20;;
50309;SDS011;36207;51.850;21.698;2022-10-17T15:02:46;56.20;;;39.70;;
50309;SDS011;36207;51.850;21.698;2022-10-17T15:05:14;42.80;;;30.50;;
50309;SDS011;36207;51.850;21.698;2022-10-17T15:07:41;89.90;;;51.50;;
50309;SDS011;36207;51.850;21.698;2022-10-17T15:10:15;148.30;;;76.80;;
50309;SDS011;36207;51.850;21.698;2022-10-17T15:12:45;143.90;;;74.30;;
50309;SDS011;36207;51.850;21.698;2022-10-17T15:15:12;163.40;;;83.30;;
50309;SDS011;36207;51.850;21.698;2022-10-17T15:17:38;90.20;;;44.70;;
50309;SDS011;36207;51.850;21.698;2022-10-17T15:20:09;59.50;;;32.00;;
50309;SDS011;36207;51.850;21.698;2022-10-17T15:22:39;38.10;;;21.30;;
50309;SDS011;36207;51.850;21.698;2022-10-17T15:25:05;25.60;;;17.20;;
50309;SDS011;36207;51.850;21.698;2022-10-17T15:27:32;27.90;;;18.70;;
50309;SDS011;36207;51.850;21.698;2022-10-17T15:29:58;34.20;;;21.10;;
50309;SDS011;36207;51.850;21.698;2022-10-17T15:32:24;25.00;;;17.50;;
50309;SDS011;36207;51.850;21.698;2022-10-17T15:34:50;27.60;;;16.80;;
50309;SDS011;36207;51.850;21.698;2022-10-17T15:37:20;22.20;;;15.60;;
50309;SDS011;36207;51.850;21.698;2022-10-17T15:39:49;28.10;;;17.10;;
50309;SDS011;36207;51.850;21.698;2022-10-17T15:42:19;34.00;;;19.60;;
50309;SDS011;36207;51.850;21.698;2022-10-17T15:44:54;57.30;;;30.40;;
50309;SDS011;36207;51.850;21.698;2022-10-17T15:47:28;55.00;;;27.80;;
50309;SDS011;36207;51.850;21.698;2022-10-17T15:49:58;92.10;;;43.00;;
50309;SDS011;36207;51.850;21.698;2022-10-17T15:52:25;50.30;;;26.40;;
50309;SDS011;36207;51.850;21.698;2022-10-17T15:54:52;45.30;;;24.20;;
50309;SDS011;36207;51.850;21.698;2022-10-17T15:57:24;60.80;;;32.40;;
50309;SDS011;36207;51.850;21.698;2022-10-17T15:59:53;56.50;;;29.60;;
50309;SDS011;36207;51.850;21.698;2022-10-17T16:02:22;24.00;;;14.90;;
50309;SDS011;36207;51.850;21.698;2022-10-17T16:04:51;21.10;;;14.10;;
50309;SDS011;36207;51.850;21.698;2022-10-17T16:07:21;22.30;;;13.80;;
50309;SDS011;36207;51.850;21.698;2022-10-17T16:09:47;25.90;;;13.50;;
50309;SDS011;36207;51.850;21.698;2022-10-17T16:12:18;24.00;;;14.00;;
50309;SDS011;36207;51.850;21.698;2022-10-17T16:14:52;19.50;;;12.80;;
50309;SDS011;36207;51.850;21.698;2022-10-17T16:17:18;20.70;;;13.90;;
50309;SDS011;36207;51.850;21.698;2022-10-17T16:19:45;22.90;;;14.50;;
50309;SDS011;36207;51.850;21.698;2022-10-17T16:22:25;23.40;;;13.70;;
50309;SDS011;36207;51.850;21.698;2022-10-17T16:24:56;26.90;;;14.60;;
50309;SDS011;36207;51.850;21.698;2022-10-17T16:27:32;40.00;;;28.10;;
50309;SDS011;36207;51.850;21.698;2022-10-17T16:29:58;32.70;;;21.80;;
50309;SDS011;36207;51.850;21.698;2022-10-17T16:32:25;23.50;;;17.00;;
50309;SDS011;36207;51.850;21.698;2022-10-17T16:34:51;21.30;;;14.20;;
50309;SDS011;36207;51.850;21.698;2022-10-17T16:37:17;22.10;;;13.90;;
50309;SDS011;36207;51.850;21.698;2022-10-17T16:39:43;21.00;;;13.70;;
50309;SDS011;36207;51.850;21.698;2022-10-17T16:42:14;18.90;;;12.70;;
50309;SDS011;36207;51.850;21.698;2022-10-17T16:44:40;17.20;;;12.50;;